world map with LVP marked

LVP - Airport

This information may not be accurate or current and is not valid for navigation or flight planning. No warranty of fitness for any purpose is made or implied.

flag of Iran

Donate via PayPal

Additional information is available on the NEW Great Circle Mapper

Location
City:  Lavan Island, Hormozgan, Iran
Name:Lavan Airport
ICAO / IATA:OIBV / LVP

Details
Type:Airport (Aerodrome, Airfield)
Latitude:26°48'37"N (26.810300)
Longitude:53°21'23"E (53.356289)
Datum:WGS 1984
Elevation:76 ft (23 m)
Runways:1
Longest:6815 × 148 ft (2077 × 45 m)

Time
Timezone:UTC+3:30 (DST+6:30)
Local Time:

Weather
METAR:OIBV  170400Z 28004KT 7000 FEW015 SCT030 BKN090 25/23 Q1016
TAF:OIBV  (expired)

Related Locations
Nearby:
Farthest:GMR: 11866 mi / 19097 km
Mangareva [Totegegie], Gambier Islands, PF

Find:

   beyond  
but within

Other Information
Maps:
Sources:

  


 


Great Circle Mapper   Great Circle Mapper
Great Circle Mapper FAQ   Great Circle Mapper FAQ
  Karl's Home Page
KLSē   KLSē Home
   GC on Facebook
Airlines of the World   Airlines of the World
Donate via PayPal


Copyright © 2004-2018, Karl L. Swartz. All rights reserved.
All trademarks mentioned herein belong to their respective owners.

Please see credits for attribution and copyright information.

Karl Swartz <karl@kls2.com>
  Powered by FreeBSD
Valid HTML 4.01!
Labeled with ICRA
hCard Microformat
Geo Microformat